createdAt,value
2018-01-12T00:01:09.675Z,29.23
2018-01-12T00:03:40.240Z,31.97
2018-01-12T00:06:10.648Z,28.07
2018-01-12T00:08:41.348Z,26.95
2018-01-12T00:11:11.832Z,29.30
2018-01-12T00:13:42.316Z,27.30
2018-01-12T00:16:13.495Z,27.90
2018-01-12T00:18:44.026Z,27.77
2018-01-12T00:21:14.549Z,28.10
2018-01-12T00:23:45.492Z,27.83
2018-01-12T00:26:16.107Z,26.27
2018-01-12T00:28:46.948Z,26.40
2018-01-12T00:31:17.571Z,25.58
2018-01-12T00:33:48.091Z,25.73
2018-01-12T00:36:18.920Z,26.05
2018-01-12T00:38:50.756Z,24.52
2018-01-12T00:41:22.881Z,25.80
2018-01-12T00:43:53.633Z,25.75
2018-01-12T00:46:24.337Z,27.80
2018-01-12T00:48:55.150Z,27.80
2018-01-12T00:51:25.507Z,26.02
2018-01-12T00:53:56.028Z,26.77
2018-01-12T00:56:26.610Z,25.35
2018-01-12T00:58:57.389Z,19.55
2018-01-12T01:01:28.053Z,18.67
2018-01-12T01:03:58.463Z,17.73
2018-01-12T01:06:29.188Z,17.85
2018-01-12T01:09:00.056Z,17.58
2018-01-12T01:11:31.694Z,16.60
2018-01-12T01:14:02.335Z,16.92
2018-01-12T01:16:32.731Z,16.58
2018-01-12T01:19:04.108Z,16.70
2018-01-12T01:21:34.861Z,17.48
2018-01-12T01:24:05.366Z,16.40
2018-01-12T01:26:36.180Z,16.05
2018-01-12T01:29:06.606Z,15.75
2018-01-12T01:31:37.037Z,14.60
2018-01-12T01:34:08.489Z,14.75
2018-01-12T01:36:38.806Z,14.45
2018-01-12T01:39:10.196Z,16.25
2018-01-12T01:41:40.982Z,16.77
2018-01-12T01:44:11.438Z,15.50
2018-01-12T01:46:42.153Z,15.30
2018-01-12T01:49:12.770Z,15.93
2018-01-12T01:51:43.493Z,16.20
2018-01-12T01:54:14.330Z,16.43
2018-01-12T01:56:44.685Z,16.30
2018-01-12T01:59:15.453Z,15.93
2018-01-12T02:01:45.952Z,16.27
2018-01-12T02:04:16.533Z,15.93
2018-01-12T02:06:47.277Z,15.43
2018-01-12T02:09:18.030Z,15.32
2018-01-12T02:11:48.710Z,14.70
2018-01-12T02:14:20.079Z,15.48
2018-01-12T02:16:50.591Z,16.12
2018-01-12T02:19:20.933Z,16.60
2018-01-12T02:21:51.770Z,15.15
2018-01-12T02:24:22.712Z,15.23
2018-01-12T02:26:53.480Z,15.55
2018-01-12T02:29:23.635Z,15.70
2018-01-12T02:31:54.014Z,15.40
2018-01-12T02:34:24.771Z,13.60
2018-01-12T02:36:55.880Z,15.20
2018-01-12T02:39:26.473Z,15.25
2018-01-12T02:41:57.544Z,14.30
2018-01-12T02:44:28.286Z,15.60
2018-01-12T02:46:58.770Z,14.70
2018-01-12T02:49:29.506Z,14.73
2018-01-12T02:52:00.156Z,15.27
2018-01-12T02:54:30.594Z,16.85
2018-01-12T02:57:01.086Z,16.50
2018-01-12T02:59:31.750Z,16.20
2018-01-12T03:02:03.025Z,16.55
2018-01-12T03:04:33.620Z,16.05
2018-01-12T03:07:04.147Z,16.92
2018-01-12T03:09:34.944Z,18.00
2018-01-12T03:12:05.659Z,15.85
2018-01-12T03:14:36.203Z,16.37
2018-01-12T03:17:07.385Z,18.08
2018-01-12T03:19:37.812Z,16.48
2018-01-12T03:22:15.861Z,18.40
2018-01-12T03:24:46.668Z,17.65
2018-01-12T03:27:17.659Z,17.45
2018-01-12T03:29:48.329Z,17.70
2018-01-12T03:32:19.745Z,17.98
2018-01-12T03:34:50.914Z,18.27
2018-01-12T03:37:21.787Z,18.50
2018-01-12T03:39:53.151Z,19.50
2018-01-12T03:42:23.419Z,19.83
2018-01-12T03:44:55.313Z,19.37
2018-01-12T03:47:26.299Z,19.98
2018-01-12T03:49:57.063Z,19.98
2018-01-12T03:52:28.276Z,20.52
2018-01-12T03:54:58.616Z,21.30
2018-01-12T03:57:29.187Z,19.37
2018-01-12T04:00:00.202Z,20.52
2018-01-12T04:02:30.902Z,22.07
2018-01-12T04:05:02.818Z,20.42
2018-01-12T04:07:33.526Z,21.20
2018-01-12T04:10:04.619Z,20.10
2018-01-12T04:12:35.566Z,20.80
2018-01-12T04:15:06.424Z,16.62
2018-01-12T04:17:36.957Z,15.18
2018-01-12T04:20:07.289Z,14.32
2018-01-12T04:22:38.496Z,13.70
2018-01-12T04:25:09.915Z,13.10
2018-01-12T04:27:40.509Z,13.10
2018-01-12T04:30:11.411Z,12.57
2018-01-12T04:32:42.061Z,12.57
2018-01-12T04:35:12.446Z,12.53
2018-01-12T04:37:43.245Z,13.45
2018-01-12T04:40:14.227Z,12.13
2018-01-12T04:42:48.068Z,12.00
2018-01-12T04:45:18.472Z,12.93
2018-01-12T04:47:49.834Z,15.32
2018-01-12T04:50:28.018Z,16.50
2018-01-12T04:53:00.955Z,16.87
2018-01-12T04:55:32.294Z,18.10
2018-01-12T04:58:02.936Z,18.95
2018-01-12T05:00:34.195Z,17.97
2018-01-12T05:03:05.571Z,17.92
2018-01-12T05:05:37.232Z,17.83
2018-01-12T05:08:08.183Z,18.58
2018-01-12T05:10:39.784Z,17.87
2018-01-12T05:13:11.741Z,17.60
2018-01-12T05:15:43.088Z,17.20
2018-01-12T05:18:14.626Z,17.58
2018-01-12T05:20:47.070Z,17.57
2018-01-12T05:23:17.647Z,16.83
2018-01-12T05:25:48.685Z,17.13
2018-01-12T05:28:19.771Z,17.05
2018-01-12T05:31:15.959Z,17.50
2018-01-12T05:33:48.800Z,19.12
2018-01-12T05:36:20.000Z,19.45
2018-01-12T05:38:56.190Z,19.33
2018-01-12T05:41:32.843Z,18.17
2018-01-12T05:44:03.534Z,18.57
2018-01-12T05:46:35.016Z,17.83
2018-01-12T05:49:08.614Z,17.30
2018-01-12T05:51:40.338Z,19.40
2018-01-12T05:54:11.696Z,18.75
2018-01-12T05:56:43.259Z,18.00
2018-01-12T05:59:15.827Z,19.20
2018-01-12T06:03:59.557Z,18.35
2018-01-12T06:06:30.496Z,18.50
2018-01-12T06:09:02.575Z,18.67
2018-01-12T06:11:32.928Z,19.02
2018-01-12T06:14:03.567Z,17.60
2018-01-12T06:16:38.714Z,18.20
2018-01-12T06:19:16.425Z,18.50
2018-01-12T06:21:46.699Z,17.15
2018-01-12T06:25:00.988Z,16.42
2018-01-12T06:27:34.803Z,16.07
2018-01-12T06:30:10.737Z,16.10
2018-01-12T06:32:45.475Z,16.80
2018-01-12T06:35:27.478Z,15.30
2018-01-12T06:41:29.543Z,15.65
2018-01-12T06:44:05.983Z,14.75
2018-01-12T06:46:38.076Z,14.50
2018-01-12T06:49:26.397Z,14.57
2018-01-12T06:52:00.292Z,13.90
2018-01-12T06:54:31.579Z,14.53
2018-01-12T06:57:02.690Z,14.45
2018-01-12T06:59:33.540Z,14.60
2018-01-12T07:02:04.592Z,14.55
2018-01-12T07:04:37.127Z,14.30
2018-01-12T07:10:10.311Z,14.50
2018-01-12T07:12:49.180Z,13.93
2018-01-12T07:15:20.159Z,14.38
2018-01-12T07:17:52.393Z,14.90
2018-01-12T07:20:52.757Z,16.30
2018-01-12T07:23:34.334Z,15.07
2018-01-12T07:26:05.808Z,13.98
2018-01-12T07:28:38.600Z,16.40
2018-01-12T07:31:10.824Z,15.20
2018-01-12T07:33:54.893Z,14.93
2018-01-12T07:36:31.567Z,14.55
2018-01-12T07:39:02.266Z,14.63
2018-01-12T07:41:33.856Z,14.45
2018-01-12T07:44:07.338Z,14.52
2018-01-12T07:46:38.186Z,15.63
2018-01-12T07:49:09.682Z,15.45
2018-01-12T07:51:41.386Z,14.52
2018-01-12T07:54:12.169Z,14.00
2018-01-12T07:56:46.668Z,15.20
2018-01-12T07:59:18.287Z,14.18
2018-01-12T08:01:52.734Z,14.27
2018-01-12T08:04:23.428Z,15.17
2018-01-12T08:06:55.783Z,14.43
2018-01-12T08:09:26.904Z,13.70
2018-01-12T08:11:58.867Z,13.65
2018-01-12T08:14:29.941Z,14.57
2018-01-12T08:17:00.767Z,14.65
2018-01-12T08:19:31.709Z,15.73
2018-01-12T08:22:02.687Z,15.55
2018-01-12T08:24:34.064Z,15.90
2018-01-12T08:27:07.432Z,14.70
2018-01-12T08:29:41.092Z,15.57
2018-01-12T08:32:12.592Z,15.43
2018-01-12T08:34:43.449Z,15.15
2018-01-12T08:37:21.269Z,15.02
2018-01-12T08:40:11.629Z,14.73
2018-01-12T08:42:45.687Z,16.05
2018-01-12T08:45:22.943Z,14.63
2018-01-12T08:47:53.524Z,13.83
2018-01-12T08:50:24.795Z,13.57
2018-01-12T08:52:55.349Z,11.98
2018-01-12T08:55:30.649Z,12.52
2018-01-12T08:58:01.544Z,11.65
2018-01-12T09:00:33.202Z,11.70
2018-01-12T09:03:04.025Z,12.40
2018-01-12T09:05:34.464Z,12.98
2018-01-12T09:08:04.706Z,13.07
2018-01-12T09:10:51.422Z,12.20
2018-01-12T09:13:30.813Z,12.77
2018-01-12T09:16:06.074Z,12.80
2018-01-12T09:18:45.604Z,12.10
2018-01-12T09:21:25.499Z,12.43
2018-01-12T09:23:57.051Z,12.75
2018-01-12T09:26:31.385Z,13.35
2018-01-12T09:29:04.719Z,12.73
2018-01-12T09:31:40.542Z,12.98
2018-01-12T09:34:21.053Z,13.20
2018-01-12T09:36:53.829Z,12.60
2018-01-12T09:40:03.883Z,12.90
2018-01-12T09:42:35.840Z,12.80
2018-01-12T09:45:10.229Z,12.40
2018-01-12T09:47:43.763Z,12.80
2018-01-12T09:50:15.966Z,12.30
2018-01-12T09:52:49.527Z,13.65
2018-01-12T09:55:21.393Z,13.27
2018-01-12T09:57:53.521Z,13.80
2018-01-12T10:00:28.739Z,13.85
2018-01-12T10:02:59.515Z,13.52
2018-01-12T10:05:30.443Z,12.50
2018-01-12T10:08:07.270Z,13.07
2018-01-12T10:10:38.500Z,12.20
2018-01-12T10:13:11.391Z,12.60
2018-01-12T10:15:41.898Z,12.30
2018-01-12T10:18:14.755Z,13.30
2018-01-12T10:20:59.645Z,13.52
2018-01-12T10:23:33.317Z,13.85
2018-01-12T10:26:05.246Z,13.55
2018-01-12T10:32:04.092Z,13.05
2018-01-12T10:34:44.010Z,12.50
2018-01-12T10:37:15.405Z,13.20
2018-01-12T10:39:55.826Z,14.50
2018-01-12T10:42:28.402Z,15.15
2018-01-12T10:44:59.734Z,14.38
2018-01-12T10:47:43.387Z,14.80
2018-01-12T10:50:25.641Z,13.60
2018-01-12T10:52:56.698Z,15.20
2018-01-12T10:55:29.410Z,14.18
2018-01-12T10:59:04.433Z,14.68
2018-01-12T11:01:39.329Z,14.38
2018-01-12T11:04:15.300Z,13.05
2018-01-12T11:06:48.828Z,13.50
2018-01-12T11:09:23.297Z,14.18
2018-01-12T11:11:59.140Z,14.25
2018-01-12T11:14:37.301Z,13.80
2018-01-12T11:17:10.170Z,13.75
2018-01-12T11:19:53.451Z,14.60
2018-01-12T11:22:28.733Z,14.15
2018-01-12T11:25:03.184Z,13.90
2018-01-12T11:27:36.962Z,13.62
2018-01-12T11:30:10.520Z,12.67
2018-01-12T11:32:43.091Z,13.85
2018-01-12T11:38:31.758Z,12.10
2018-01-12T11:41:07.611Z,14.80
2018-01-12T11:43:46.357Z,13.80
2018-01-12T11:49:03.923Z,14.07
2018-01-12T11:51:36.869Z,14.68
2018-01-12T11:57:41.708Z,15.02
2018-01-12T12:00:13.593Z,14.32
2018-01-12T12:02:46.370Z,13.63
2018-01-12T12:05:24.408Z,12.05
2018-01-12T12:07:58.937Z,13.82
2018-01-12T12:10:41.271Z,14.18
2018-01-12T12:13:34.803Z,13.75
2018-01-12T12:16:32.438Z,13.43
2018-01-12T12:19:03.180Z,13.23
2018-01-12T12:21:33.924Z,13.95
2018-01-12T12:24:04.695Z,12.43
2018-01-12T12:26:36.660Z,13.50
2018-01-12T12:29:07.768Z,13.40
2018-01-12T12:34:09.756Z,13.75
2018-01-12T12:36:42.118Z,13.80
2018-01-12T12:39:14.671Z,13.07
2018-01-12T12:41:47.792Z,13.10
2018-01-12T12:44:18.873Z,13.05
2018-01-12T12:46:49.676Z,11.40
2018-01-12T12:49:22.224Z,11.90
2018-01-12T12:51:55.551Z,12.20
2018-01-12T12:54:28.089Z,11.93
2018-01-12T12:57:00.629Z,11.65
2018-01-12T12:59:31.411Z,13.40
2018-01-12T13:02:04.627Z,11.90
2018-01-12T13:08:09.371Z,11.65
2018-01-12T13:10:40.036Z,12.48
2018-01-12T13:13:13.378Z,13.07
2018-01-12T13:15:45.858Z,11.77
2018-01-12T13:18:19.721Z,12.23
2018-01-12T13:20:50.400Z,11.82
2018-01-12T13:23:25.177Z,12.82
2018-01-12T13:26:39.929Z,11.98
2018-01-12T13:29:24.116Z,12.48
2018-01-12T13:32:23.740Z,12.37
2018-01-12T13:35:00.937Z,13.20
2018-01-12T13:38:17.113Z,14.00
2018-01-12T13:40:54.264Z,13.18
2018-01-12T13:43:25.404Z,13.13
2018-01-12T13:45:58.392Z,12.87
2018-01-12T13:48:30.675Z,15.05
2018-01-12T13:51:34.721Z,13.80
2018-01-12T13:54:06.585Z,13.93
2018-01-12T13:56:37.693Z,13.87
2018-01-12T13:59:09.180Z,12.70
2018-01-12T14:01:42.055Z,14.63
2018-01-12T14:04:12.835Z,14.18
2018-01-12T14:06:53.325Z,14.90
2018-01-12T14:09:28.951Z,15.27
2018-01-12T14:12:44.793Z,14.93
2018-01-12T14:15:38.325Z,15.73
2018-01-12T14:18:09.182Z,15.35
2018-01-12T14:20:40.805Z,13.98
2018-01-12T14:23:11.180Z,15.52
2018-01-12T14:25:42.069Z,15.87
2018-01-12T14:28:15.031Z,14.70
2018-01-12T14:30:45.884Z,15.45
2018-01-12T14:33:16.868Z,15.97
2018-01-12T14:35:48.799Z,16.02
2018-01-12T14:38:28.162Z,16.00
2018-01-12T14:40:59.683Z,15.80
2018-01-12T14:43:36.953Z,15.23
2018-01-12T14:46:08.613Z,15.43
2018-01-12T14:48:40.892Z,15.80
2018-01-12T14:58:04.058Z,16.33
2018-01-12T15:00:36.314Z,17.12
2018-01-12T15:03:11.439Z,16.60
2018-01-12T15:05:42.613Z,17.48
2018-01-12T15:08:14.380Z,15.60
2018-01-12T15:10:46.448Z,15.40
2018-01-12T15:13:26.257Z,17.10
2018-01-12T15:16:01.786Z,15.90
2018-01-12T15:18:34.483Z,15.90
2018-01-12T15:21:06.144Z,16.83
2018-01-12T15:24:01.010Z,16.23
2018-01-12T15:26:48.040Z,16.30
2018-01-12T15:29:19.368Z,15.52
2018-01-12T15:31:51.302Z,17.42
2018-01-12T15:34:21.836Z,16.50
2018-01-12T15:36:53.457Z,17.00
2018-01-12T15:39:28.267Z,16.73
2018-01-12T15:42:00.098Z,16.85
2018-01-12T15:44:31.622Z,16.50
2018-01-12T15:47:04.161Z,17.10
2018-01-12T15:49:35.452Z,16.65
2018-01-12T15:52:08.449Z,16.70
2018-01-12T15:54:46.602Z,16.35
2018-01-12T15:57:21.836Z,16.80
2018-01-12T15:59:56.854Z,17.20
2018-01-12T16:02:30.779Z,17.77
2018-01-12T16:06:08.828Z,17.00
2018-01-12T16:08:40.595Z,16.83
2018-01-12T16:11:12.328Z,16.80
2018-01-12T16:20:59.883Z,18.62
2018-01-12T16:23:30.627Z,19.30
2018-01-12T16:26:06.265Z,17.92
2018-01-12T16:28:38.429Z,19.50
2018-01-12T16:31:17.117Z,19.08
2018-01-12T16:34:13.209Z,20.10
2018-01-12T16:36:47.631Z,19.65
2018-01-12T16:39:27.452Z,19.98
2018-01-12T16:42:00.803Z,21.60
2018-01-12T16:44:33.187Z,20.97
2018-01-12T16:47:16.590Z,22.33
2018-01-12T16:49:55.891Z,22.40
2018-01-12T16:52:31.318Z,21.08
2018-01-12T16:55:04.012Z,22.00
2018-01-12T16:57:41.979Z,21.98
2018-01-12T17:00:15.750Z,23.80
2018-01-12T17:02:47.289Z,22.35
2018-01-12T17:05:29.170Z,23.27
2018-01-12T17:08:28.514Z,22.02
2018-01-12T17:11:03.727Z,23.50
2018-01-12T17:13:35.475Z,23.10
2018-01-12T17:16:06.827Z,22.08
2018-01-12T17:18:38.531Z,21.90
2018-01-12T17:21:09.875Z,23.00
2018-01-12T17:23:44.948Z,22.90
2018-01-12T17:26:20.696Z,25.10
2018-01-12T17:28:54.700Z,22.60
2018-01-12T17:31:27.637Z,23.87
2018-01-12T17:34:00.738Z,23.05
2018-01-12T17:36:31.160Z,23.30
2018-01-12T17:39:17.674Z,22.27
2018-01-12T17:41:49.003Z,23.33
2018-01-12T17:44:22.707Z,22.55
2018-01-12T17:46:55.864Z,24.08
2018-01-12T17:49:29.905Z,22.13
2018-01-12T17:52:01.669Z,22.98
2018-01-12T17:54:32.439Z,22.62
2018-01-12T17:57:04.000Z,22.08
2018-01-12T17:59:34.315Z,22.83
2018-01-12T18:02:06.202Z,25.73
2018-01-12T18:04:37.471Z,23.40
2018-01-12T18:07:09.392Z,24.87
2018-01-12T18:09:45.946Z,23.70
2018-01-12T18:12:16.970Z,23.20
2018-01-12T18:14:47.588Z,24.27
2018-01-12T18:17:19.115Z,24.02
2018-01-12T18:19:51.273Z,23.23
2018-01-12T18:22:22.248Z,23.27
2018-01-12T18:24:56.450Z,24.60
2018-01-12T18:27:34.705Z,24.63
2018-01-12T18:30:09.044Z,23.38
2018-01-12T18:32:40.657Z,24.65
2018-01-12T18:35:11.490Z,25.98
2018-01-12T18:37:43.639Z,26.12
2018-01-12T18:40:15.143Z,27.07
2018-01-12T18:42:45.643Z,25.15
2018-01-12T18:45:17.421Z,26.42
2018-01-12T18:47:49.843Z,24.60
2018-01-12T18:50:21.388Z,25.40
2018-01-12T18:52:52.098Z,25.03
2018-01-12T18:55:22.596Z,26.67
2018-01-12T18:57:53.597Z,28.23
2018-01-12T19:00:25.180Z,22.65
2018-01-12T19:02:56.121Z,24.80
2018-01-12T19:05:28.021Z,26.30
2018-01-12T19:07:58.429Z,25.27
2018-01-12T19:10:30.166Z,24.95
2018-01-12T19:13:01.148Z,25.45
2018-01-12T19:15:32.232Z,25.57
2018-01-12T19:18:02.952Z,28.10
2018-01-12T19:20:34.354Z,26.50
2018-01-12T19:23:05.294Z,28.20
2018-01-12T19:25:46.507Z,30.27
2018-01-12T19:28:18.337Z,29.45
2018-01-12T19:30:49.041Z,28.50
2018-01-12T19:33:20.237Z,29.52
2018-01-12T19:35:51.615Z,29.12
2018-01-12T19:38:21.993Z,26.70
2018-01-12T19:40:52.369Z,24.90
2018-01-12T19:43:23.327Z,24.83
2018-01-12T19:45:54.415Z,26.23
2018-01-12T19:48:25.726Z,27.10
2018-01-12T19:50:58.395Z,26.50
2018-01-12T19:53:28.711Z,25.37
2018-01-12T19:55:59.699Z,24.83
2018-01-12T19:58:30.999Z,24.65
2018-01-12T20:01:02.253Z,25.92
2018-01-12T20:03:33.455Z,26.08
2018-01-12T20:06:04.425Z,26.08
2018-01-12T20:08:35.142Z,26.47
2018-01-12T20:11:06.139Z,25.80
2018-01-12T20:13:36.891Z,26.80
2018-01-12T20:16:08.143Z,27.67
2018-01-12T20:18:40.147Z,28.67
2018-01-12T20:21:12.383Z,28.80
2018-01-12T20:23:48.541Z,26.83
2018-01-12T20:26:24.496Z,25.75
2018-01-12T20:29:04.578Z,25.77
2018-01-12T20:31:36.032Z,25.50
2018-01-12T20:34:10.915Z,23.60
2018-01-12T20:36:41.597Z,24.80
2018-01-12T20:39:13.463Z,24.87
2018-01-12T20:41:46.083Z,26.05
2018-01-12T20:44:17.376Z,26.33
2018-01-12T20:46:54.125Z,27.67
2018-01-12T20:49:29.770Z,25.77
2018-01-12T20:54:18.899Z,26.75
2018-01-12T20:56:49.735Z,27.40
2018-01-12T20:59:39.617Z,28.13
2018-01-12T21:02:45.887Z,27.25
2018-01-12T21:05:18.508Z,27.80
2018-01-12T21:08:07.063Z,29.37
2018-01-12T21:10:41.275Z,28.30
2018-01-12T21:13:15.897Z,28.55
2018-01-12T21:15:49.694Z,28.33
2018-01-12T21:18:20.709Z,29.35
2018-01-12T21:20:54.496Z,27.92
2018-01-12T21:23:25.395Z,28.53
2018-01-12T21:25:58.676Z,29.75
2018-01-12T21:28:29.662Z,30.03
2018-01-12T21:31:01.161Z,30.05
2018-01-12T21:33:31.940Z,30.62
2018-01-12T21:36:03.298Z,29.90
2018-01-12T21:38:36.205Z,32.22
2018-01-12T21:41:08.070Z,31.80
2018-01-12T21:43:38.785Z,31.55
2018-01-12T21:46:10.016Z,32.85
2018-01-12T21:48:41.158Z,30.55
2018-01-12T21:51:11.913Z,29.67
2018-01-12T21:53:43.041Z,31.27
2018-01-12T21:56:13.777Z,31.42
2018-01-12T21:58:47.257Z,29.75
2018-01-12T22:01:19.162Z,30.15
2018-01-12T22:03:51.886Z,27.60
2018-01-12T22:06:26.852Z,31.17
2018-01-12T22:08:57.227Z,29.37
2018-01-12T22:11:27.588Z,30.50
2018-01-12T22:13:58.365Z,27.65
2018-01-12T22:16:29.001Z,30.85
2018-01-12T22:19:01.327Z,30.33
2018-01-12T22:21:32.266Z,30.58
2018-01-12T22:24:03.176Z,30.60
2018-01-12T22:26:35.374Z,31.50
2018-01-12T22:29:07.681Z,31.52
2018-01-12T22:31:40.026Z,32.17
2018-01-12T22:34:10.493Z,31.55
2018-01-12T22:36:40.828Z,32.23
2018-01-12T22:39:11.553Z,32.80
2018-01-12T22:41:43.087Z,33.90
2018-01-12T22:44:14.922Z,31.95
2018-01-12T22:46:45.449Z,33.50
2018-01-12T22:49:15.711Z,31.92
2018-01-12T22:51:46.351Z,34.27
2018-01-12T22:54:16.694Z,32.40
2018-01-12T22:56:46.971Z,31.20
2018-01-12T22:59:17.988Z,32.53
2018-01-12T23:01:48.552Z,33.50
2018-01-12T23:04:18.919Z,31.17
2018-01-12T23:06:50.489Z,29.87
2018-01-12T23:09:22.042Z,31.08
2018-01-12T23:11:55.469Z,30.30
2018-01-12T23:14:27.895Z,28.87
2018-01-12T23:16:58.400Z,30.42
2018-01-12T23:19:29.881Z,31.35
2018-01-12T23:22:00.408Z,33.28
2018-01-12T23:24:33.574Z,31.90
2018-01-12T23:27:04.506Z,30.80
2018-01-12T23:29:35.979Z,30.98
2018-01-12T23:32:07.074Z,31.15
2018-01-12T23:34:39.506Z,28.48
2018-01-12T23:37:11.423Z,27.60
2018-01-12T23:39:42.553Z,25.83
2018-01-12T23:42:13.153Z,25.73
2018-01-12T23:44:44.278Z,24.45
2018-01-12T23:47:14.836Z,24.20
2018-01-12T23:49:45.164Z,21.65
2018-01-12T23:52:15.516Z,22.95
2018-01-12T23:54:45.869Z,22.27
2018-01-12T23:57:16.040Z,21.03
2018-01-12T23:59:46.275Z,20.60
